Archival Weather

Greater Kankakee

Kankakee, Illinois (KIKK)

Report from: Wednesday, December 6, 2023 7:35 AM CST
Current time: Saturday, February 24, 2024 9:23 AM CST

Current weather – Weather history – Daily summaries
Weather forecast

Temperature1.2°C (34.2°F)
Wind chill-1.7°C (29.0°F)
Dew point-2.3°C (27.9°F)
Winds 5 kts (2.6 m/s, 5.8 mph) West-Northwest (290°)
Visibility10 mi. (16.1 km)
Clouds Ceiling: Overcast 2,700 ft. (823 m)
Altimeter30.32 in.Hg (1027 mB)
Relative humidity77 %
Density altitude-2,061 ft. (-628 m)
Remarks Fully automated report
Automated weather observing station with precipitation discriminator
Present weather sensor not operating
Flight conditions Marginal Visual Meteorological Conditions
Raw dataKIKK 061335Z AUTO 29005KT 10SM OVC027 01/M02 A3032 RMK AO2 T00121023 PWINO
An error has occurred. This application may no longer respond until reloaded. Reload 🗙